sensor_id;sensor_type;location;lat;lon;timestamp;pressure;altitude;pressure_sealevel;temperature;humidity
36932;BME280;22847;42.654;23.370;2024-01-30T00:01:51;96616.38;;;2.83;56.92
36932;BME280;22847;42.654;23.370;2024-01-30T00:04:16;96644.56;;;2.87;56.59
36932;BME280;22847;42.654;23.370;2024-01-30T00:06:43;96475.06;;;1.95;56.28
36932;BME280;22847;42.654;23.370;2024-01-30T00:09:08;96623.00;;;2.90;56.15
36932;BME280;22847;42.654;23.370;2024-01-30T00:11:35;96583.94;;;2.77;56.07
36932;BME280;22847;42.654;23.370;2024-01-30T00:14:00;96608.06;;;2.99;55.86
36932;BME280;22847;42.654;23.370;2024-01-30T00:16:26;96586.50;;;2.77;56.03
36932;BME280;22847;42.654;23.370;2024-01-30T00:18:52;96629.50;;;3.01;56.22
36932;BME280;22847;42.654;23.370;2024-01-30T00:21:19;96639.81;;;3.01;55.87
36932;BME280;22847;42.654;23.370;2024-01-30T00:23:44;96633.16;;;2.94;55.81
36932;BME280;22847;42.654;23.370;2024-01-30T00:26:10;96646.88;;;2.95;55.82
36932;BME280;22847;42.654;23.370;2024-01-30T00:28:37;96611.16;;;2.84;55.46
36932;BME280;22847;42.654;23.370;2024-01-30T00:31:02;96621.06;;;2.96;55.41
36932;BME280;22847;42.654;23.370;2024-01-30T00:33:28;96614.34;;;2.92;55.15
36932;BME280;22847;42.654;23.370;2024-01-30T00:35:53;96631.06;;;3.05;55.02
36932;BME280;22847;42.654;23.370;2024-01-30T00:38:19;96498.91;;;2.26;55.40
36932;BME280;22847;42.654;23.370;2024-01-30T00:40:44;96641.00;;;2.91;55.47
36932;BME280;22847;42.654;23.370;2024-01-30T00:43:10;96619.88;;;2.80;55.74
36932;BME280;22847;42.654;23.370;2024-01-30T00:45:35;96621.47;;;2.84;55.75
36932;BME280;22847;42.654;23.370;2024-01-30T00:48:01;96446.59;;;1.74;55.99
36932;BME280;22847;42.654;23.370;2024-01-30T00:50:26;96502.03;;;2.09;56.13
36932;BME280;22847;42.654;23.370;2024-01-30T00:52:52;96627.56;;;2.82;56.47
36932;BME280;22847;42.654;23.370;2024-01-30T00:55:17;96609.09;;;2.69;56.47
36932;BME280;22847;42.654;23.370;2024-01-30T00:57:43;96579.25;;;2.62;55.92
36932;BME280;22847;42.654;23.370;2024-01-30T01:00:09;96608.88;;;2.75;55.75
36932;BME280;22847;42.654;23.370;2024-01-30T01:02:35;96616.75;;;2.70;56.03
36932;BME280;22847;42.654;23.370;2024-01-30T01:05:01;96640.03;;;2.67;56.05
36932;BME280;22847;42.654;23.370;2024-01-30T01:07:26;96620.53;;;2.60;56.21
36932;BME280;22847;42.654;23.370;2024-01-30T01:17:38;96600.28;;;2.50;55.96
36932;BME280;22847;42.654;23.370;2024-01-30T01:20:06;96590.22;;;2.42;56.26
36932;BME280;22847;42.654;23.370;2024-01-30T01:22:32;96579.84;;;2.17;56.85
36932;BME280;22847;42.654;23.370;2024-01-30T01:24:59;96605.81;;;2.38;56.96
36932;BME280;22847;42.654;23.370;2024-01-30T01:27:25;96610.72;;;2.45;56.59
36932;BME280;22847;42.654;23.370;2024-01-30T01:29:51;96615.75;;;2.48;56.79
36932;BME280;22847;42.654;23.370;2024-01-30T01:32:17;96626.13;;;1.90;58.28
36932;BME280;22847;42.654;23.370;2024-01-30T01:34:42;96627.59;;;1.98;58.79
36932;BME280;22847;42.654;23.370;2024-01-30T01:50:04;96629.63;;;2.44;57.54
36932;BME280;22847;42.654;23.370;2024-01-30T01:52:29;96626.16;;;2.45;57.19
36932;BME280;22847;42.654;23.370;2024-01-30T01:54:55;96618.19;;;2.53;57.20
36932;BME280;22847;42.654;23.370;2024-01-30T02:02:46;96414.50;;;1.03;56.82
36932;BME280;22847;42.654;23.370;2024-01-30T02:05:12;96266.75;;;0.05;56.67
36932;BME280;22847;42.654;23.370;2024-01-30T02:07:38;96384.28;;;0.81;56.63
36932;BME280;22847;42.654;23.370;2024-01-30T02:10:04;96247.69;;;-0.16;56.42
36932;BME280;22847;42.654;23.370;2024-01-30T02:12:30;96369.38;;;0.65;56.52
36932;BME280;22847;42.654;23.370;2024-01-30T02:14:56;96482.88;;;1.65;56.45
36932;BME280;22847;42.654;23.370;2024-01-30T02:17:21;96655.97;;;2.52;56.18
36932;BME280;22847;42.654;23.370;2024-01-30T02:19:48;96507.28;;;1.80;56.08
36932;BME280;22847;42.654;23.370;2024-01-30T02:22:14;96612.44;;;2.45;55.76
36932;BME280;22847;42.654;23.370;2024-01-30T02:24:40;96630.78;;;2.62;55.44
36932;BME280;22847;42.654;23.370;2024-01-30T02:27:05;96633.44;;;2.59;55.35
36932;BME280;22847;42.654;23.370;2024-01-30T02:29:31;96603.72;;;2.49;55.31
36932;BME280;22847;42.654;23.370;2024-01-30T02:31:56;96609.75;;;2.48;55.42
36932;BME280;22847;42.654;23.370;2024-01-30T02:34:22;96628.97;;;2.65;55.31
36932;BME280;22847;42.654;23.370;2024-01-30T02:36:47;96525.44;;;2.02;55.23
36932;BME280;22847;42.654;23.370;2024-01-30T02:39:13;96631.41;;;2.70;55.33
36932;BME280;22847;42.654;23.370;2024-01-30T02:41:38;96622.75;;;2.71;55.39
36932;BME280;22847;42.654;23.370;2024-01-30T02:44:04;96626.38;;;2.65;55.93
36932;BME280;22847;42.654;23.370;2024-01-30T02:46:29;96626.03;;;2.76;55.87
36932;BME280;22847;42.654;23.370;2024-01-30T02:48:55;96627.06;;;2.70;56.20
36932;BME280;22847;42.654;23.370;2024-01-30T02:51:21;96612.75;;;2.62;55.80
36932;BME280;22847;42.654;23.370;2024-01-30T02:53:46;96600.78;;;2.61;54.76
36932;BME280;22847;42.654;23.370;2024-01-30T02:56:12;96603.13;;;2.41;54.95
36932;BME280;22847;42.654;23.370;2024-01-30T02:58:39;96579.25;;;2.36;55.17
36932;BME280;22847;42.654;23.370;2024-01-30T03:01:05;96477.00;;;1.88;55.15
36932;BME280;22847;42.654;23.370;2024-01-30T03:06:06;96623.53;;;2.75;54.90
36932;BME280;22847;42.654;23.370;2024-01-30T03:08:32;96599.88;;;2.62;54.56
36932;BME280;22847;42.654;23.370;2024-01-30T03:11:00;96446.22;;;1.85;54.41
36932;BME280;22847;42.654;23.370;2024-01-30T03:13:25;96610.13;;;2.90;54.25
36932;BME280;22847;42.654;23.370;2024-01-30T03:15:51;96596.81;;;2.77;54.26
36932;BME280;22847;42.654;23.370;2024-01-30T03:18:16;96505.75;;;2.01;54.21
36932;BME280;22847;42.654;23.370;2024-01-30T03:20:42;96474.00;;;2.02;54.06
36932;BME280;22847;42.654;23.370;2024-01-30T03:23:07;96611.06;;;2.87;53.87
36932;BME280;22847;42.654;23.370;2024-01-30T03:25:32;96617.25;;;2.82;53.80
36932;BME280;22847;42.654;23.370;2024-01-30T03:27:58;96615.72;;;2.76;53.83
36932;BME280;22847;42.654;23.370;2024-01-30T03:30:23;96618.81;;;2.61;53.44
36932;BME280;22847;42.654;23.370;2024-01-30T03:32:49;96478.22;;;1.76;53.83
36932;BME280;22847;42.654;23.370;2024-01-30T03:35:15;96600.09;;;2.56;53.94
36932;BME280;22847;42.654;23.370;2024-01-30T03:37:41;96441.34;;;1.77;53.62
36932;BME280;22847;42.654;23.370;2024-01-30T03:40:06;96600.63;;;2.65;53.71
36932;BME280;22847;42.654;23.370;2024-01-30T03:42:32;96597.66;;;2.78;53.56
36932;BME280;22847;42.654;23.370;2024-01-30T03:44:57;96624.88;;;2.85;53.35
36932;BME280;22847;42.654;23.370;2024-01-30T03:47:25;96607.66;;;2.87;53.01
36932;BME280;22847;42.654;23.370;2024-01-30T03:49:50;96447.88;;;1.88;52.83
36932;BME280;22847;42.654;23.370;2024-01-30T03:52:16;96581.47;;;2.74;52.83
36932;BME280;22847;42.654;23.370;2024-01-30T03:54:41;96580.47;;;2.78;52.92
36932;BME280;22847;42.654;23.370;2024-01-30T03:57:06;96593.09;;;2.86;52.91
36932;BME280;22847;42.654;23.370;2024-01-30T03:59:32;96566.06;;;2.73;52.79
36932;BME280;22847;42.654;23.370;2024-01-30T04:01:57;96578.13;;;2.70;52.77
36932;BME280;22847;42.654;23.370;2024-01-30T04:04:24;96453.72;;;1.93;52.65
36932;BME280;22847;42.654;23.370;2024-01-30T04:06:50;96593.97;;;2.85;52.85
36932;BME280;22847;42.654;23.370;2024-01-30T04:09:16;96435.06;;;1.86;52.89
36932;BME280;22847;42.654;23.370;2024-01-30T04:11:41;96507.63;;;2.22;52.70
36932;BME280;22847;42.654;23.370;2024-01-30T04:14:07;96598.28;;;2.84;52.78
36932;BME280;22847;42.654;23.370;2024-01-30T04:16:33;96581.81;;;2.63;52.90
36932;BME280;22847;42.654;23.370;2024-01-30T04:18:59;96606.16;;;2.80;53.26
36932;BME280;22847;42.654;23.370;2024-01-30T04:21:24;96595.84;;;2.80;52.42
36932;BME280;22847;42.654;23.370;2024-01-30T04:23:53;96604.34;;;2.83;52.55
36932;BME280;22847;42.654;23.370;2024-01-30T04:26:19;96612.00;;;2.85;52.67
36932;BME280;22847;42.654;23.370;2024-01-30T04:28:45;96599.22;;;2.82;52.70
36932;BME280;22847;42.654;23.370;2024-01-30T04:31:11;96578.06;;;2.72;53.28
36932;BME280;22847;42.654;23.370;2024-01-30T04:33:36;96603.13;;;2.67;53.54
36932;BME280;22847;42.654;23.370;2024-01-30T04:36:02;96617.31;;;2.80;53.73
36932;BME280;22847;42.654;23.370;2024-01-30T04:38:29;96584.47;;;2.60;53.93
36932;BME280;22847;42.654;23.370;2024-01-30T04:40:54;96601.06;;;2.78;53.33
36932;BME280;22847;42.654;23.370;2024-01-30T04:43:20;96586.91;;;2.65;53.25
36932;BME280;22847;42.654;23.370;2024-01-30T04:45:45;96626.75;;;2.80;53.53
36932;BME280;22847;42.654;23.370;2024-01-30T04:48:11;96606.84;;;2.58;52.66
36932;BME280;22847;42.654;23.370;2024-01-30T04:50:36;96470.34;;;1.81;53.12
36932;BME280;22847;42.654;23.370;2024-01-30T04:53:02;96620.47;;;2.62;53.46
36932;BME280;22847;42.654;23.370;2024-01-30T04:55:27;96624.63;;;2.66;53.51
36932;BME280;22847;42.654;23.370;2024-01-30T04:57:53;96640.22;;;2.61;53.59
36932;BME280;22847;42.654;23.370;2024-01-30T05:00:19;96437.16;;;1.47;53.51
36932;BME280;22847;42.654;23.370;2024-01-30T05:02:44;96475.88;;;1.69;53.38
36932;BME280;22847;42.654;23.370;2024-01-30T05:05:09;96590.31;;;2.39;52.99
36932;BME280;22847;42.654;23.370;2024-01-30T05:07:36;96599.75;;;2.39;53.05
36932;BME280;22847;42.654;23.370;2024-01-30T05:10:02;96668.56;;;2.61;53.17
36932;BME280;22847;42.654;23.370;2024-01-30T05:12:28;96504.69;;;1.80;53.42
36932;BME280;22847;42.654;23.370;2024-01-30T05:14:53;96556.25;;;2.03;53.54
36932;BME280;22847;42.654;23.370;2024-01-30T05:17:19;96635.25;;;2.29;53.92
36932;BME280;22847;42.654;23.370;2024-01-30T05:19:44;96456.66;;;1.25;54.07
36932;BME280;22847;42.654;23.370;2024-01-30T05:22:10;96407.72;;;1.00;53.99
36932;BME280;22847;42.654;23.370;2024-01-30T05:24:36;96524.63;;;1.72;53.83
36932;BME280;22847;42.654;23.370;2024-01-30T05:27:02;96591.50;;;2.01;54.27
36932;BME280;22847;42.654;23.370;2024-01-30T05:29:28;96622.47;;;2.26;54.26
36932;BME280;22847;42.654;23.370;2024-01-30T05:31:53;96616.59;;;2.21;54.21
36932;BME280;22847;42.654;23.370;2024-01-30T05:34:19;96645.59;;;2.28;54.37
36932;BME280;22847;42.654;23.370;2024-01-30T05:36:44;96610.16;;;2.08;55.03
36932;BME280;22847;42.654;23.370;2024-01-30T05:39:10;96644.00;;;2.23;55.06
36932;BME280;22847;42.654;23.370;2024-01-30T05:41:36;96610.50;;;1.97;54.87
36932;BME280;22847;42.654;23.370;2024-01-30T05:44:01;96610.22;;;2.06;54.63
36932;BME280;22847;42.654;23.370;2024-01-30T05:46:27;96643.16;;;2.23;55.13
36932;BME280;22847;42.654;23.370;2024-01-30T05:48:52;96644.91;;;2.21;54.91
36932;BME280;22847;42.654;23.370;2024-01-30T05:51:18;96658.63;;;2.21;54.91
36932;BME280;22847;42.654;23.370;2024-01-30T05:53:43;96629.72;;;2.13;54.70
36932;BME280;22847;42.654;23.370;2024-01-30T05:56:09;96529.56;;;1.50;54.53
36932;BME280;22847;42.654;23.370;2024-01-30T05:58:34;96647.63;;;2.16;54.29
36932;BME280;22847;42.654;23.370;2024-01-30T06:01:00;96669.97;;;2.16;53.89
36932;BME280;22847;42.654;23.370;2024-01-30T06:03:25;96628.97;;;2.10;53.58
36932;BME280;22847;42.654;23.370;2024-01-30T06:05:51;96623.69;;;1.85;53.91
36932;BME280;22847;42.654;23.370;2024-01-30T06:08:17;96546.16;;;1.40;54.47
36932;BME280;22847;42.654;23.370;2024-01-30T06:10:43;96641.94;;;1.76;54.52
36932;BME280;22847;42.654;23.370;2024-01-30T06:13:08;96656.84;;;1.34;55.50
36932;BME280;22847;42.654;23.370;2024-01-30T06:15:34;96637.97;;;1.66;54.71
36932;BME280;22847;42.654;23.370;2024-01-30T06:17:59;96642.19;;;1.68;54.11
36932;BME280;22847;42.654;23.370;2024-01-30T06:20:25;96644.88;;;1.64;53.80
36932;BME280;22847;42.654;23.370;2024-01-30T06:22:50;96551.53;;;1.31;53.55
36932;BME280;22847;42.654;23.370;2024-01-30T06:25:16;96648.94;;;2.02;53.51
36932;BME280;22847;42.654;23.370;2024-01-30T06:27:42;96502.91;;;1.25;53.01
36932;BME280;22847;42.654;23.370;2024-01-30T06:30:08;96579.34;;;1.77;52.64
36932;BME280;22847;42.654;23.370;2024-01-30T06:32:35;96646.28;;;2.33;52.45
36932;BME280;22847;42.654;23.370;2024-01-30T06:35:01;96649.56;;;2.38;52.08
36932;BME280;22847;42.654;23.370;2024-01-30T06:37:27;96469.63;;;1.50;51.65
36932;BME280;22847;42.654;23.370;2024-01-30T06:39:52;96635.50;;;2.48;51.50
36932;BME280;22847;42.654;23.370;2024-01-30T06:42:19;96565.25;;;2.18;51.99
36932;BME280;22847;42.654;23.370;2024-01-30T06:44:44;96633.13;;;2.69;52.19
36932;BME280;22847;42.654;23.370;2024-01-30T06:47:10;96663.91;;;2.99;52.27
36932;BME280;22847;42.654;23.370;2024-01-30T06:49:36;96647.13;;;4.76;49.20
36932;BME280;22847;42.654;23.370;2024-01-30T06:52:05;96623.34;;;8.00;43.31
36932;BME280;22847;42.654;23.370;2024-01-30T06:54:30;96627.59;;;10.42;36.92
36932;BME280;22847;42.654;23.370;2024-01-30T06:56:56;96642.13;;;10.03;35.30
36932;BME280;22847;42.654;23.370;2024-01-30T06:59:22;96642.53;;;11.59;32.51
36932;BME280;22847;42.654;23.370;2024-01-30T07:01:47;96599.03;;;13.42;29.49
36932;BME280;22847;42.654;23.370;2024-01-30T07:04:13;96630.38;;;13.44;27.73
36932;BME280;22847;42.654;23.370;2024-01-30T07:06:39;96633.53;;;12.88;27.74
36932;BME280;22847;42.654;23.370;2024-01-30T07:09:04;96612.09;;;13.31;26.49
36932;BME280;22847;42.654;23.370;2024-01-30T07:11:30;96611.72;;;13.70;26.83
36932;BME280;22847;42.654;23.370;2024-01-30T07:13:56;96641.53;;;15.14;25.49
36932;BME280;22847;42.654;23.370;2024-01-30T07:16:21;96606.66;;;15.76;24.10
36932;BME280;22847;42.654;23.370;2024-01-30T07:18:47;96615.78;;;16.02;23.76
36932;BME280;22847;42.654;23.370;2024-01-30T07:21:13;96494.94;;;14.97;23.66
36932;BME280;22847;42.654;23.370;2024-01-30T07:23:38;96629.16;;;15.37;23.95
36932;BME280;22847;42.654;23.370;2024-01-30T07:26:05;96608.88;;;11.55;27.83
36932;BME280;22847;42.654;23.370;2024-01-30T07:28:32;96634.69;;;13.21;26.97
36932;BME280;22847;42.654;23.370;2024-01-30T07:30:58;96659.84;;;14.04;26.04
36932;BME280;22847;42.654;23.370;2024-01-30T07:33:23;96518.53;;;14.11;24.83
36932;BME280;22847;42.654;23.370;2024-01-30T07:35:49;96639.66;;;13.94;25.54
36932;BME280;22847;42.654;23.370;2024-01-30T07:38:14;96628.94;;;11.42;29.51
36932;BME280;22847;42.654;23.370;2024-01-30T07:40:40;96565.63;;;12.74;27.19
36932;BME280;22847;42.654;23.370;2024-01-30T07:43:06;96659.16;;;11.58;27.57
36932;BME280;22847;42.654;23.370;2024-01-30T07:45:31;96569.50;;;10.40;29.26
36932;BME280;22847;42.654;23.370;2024-01-30T07:47:58;96622.88;;;11.41;28.66
36932;BME280;22847;42.654;23.370;2024-01-30T07:50:25;96635.81;;;10.21;30.49
36932;BME280;22847;42.654;23.370;2024-01-30T07:52:50;96604.94;;;10.83;31.35
36932;BME280;22847;42.654;23.370;2024-01-30T07:55:22;96519.06;;;10.26;29.45
36932;BME280;22847;42.654;23.370;2024-01-30T07:57:54;96563.03;;;8.58;33.15
36932;BME280;22847;42.654;23.370;2024-01-30T08:00:21;96637.81;;;9.30;31.97
36932;BME280;22847;42.654;23.370;2024-01-30T08:02:46;96635.03;;;9.77;31.81
36932;BME280;22847;42.654;23.370;2024-01-30T08:05:12;96626.19;;;10.36;31.37
36932;BME280;22847;42.654;23.370;2024-01-30T08:07:40;96518.00;;;9.02;33.46
36932;BME280;22847;42.654;23.370;2024-01-30T08:10:07;96503.94;;;8.76;32.03
36932;BME280;22847;42.654;23.370;2024-01-30T08:12:32;96643.78;;;8.71;33.53
36932;BME280;22847;42.654;23.370;2024-01-30T08:14:58;96601.28;;;9.02;32.45
36932;BME280;22847;42.654;23.370;2024-01-30T08:17:23;96593.44;;;7.60;34.64
36932;BME280;22847;42.654;23.370;2024-01-30T08:19:49;96554.09;;;7.84;34.31
36932;BME280;22847;42.654;23.370;2024-01-30T08:22:14;96628.72;;;9.07;33.25
36932;BME280;22847;42.654;23.370;2024-01-30T08:24:41;96631.47;;;9.78;31.90
36932;BME280;22847;42.654;23.370;2024-01-30T08:27:07;96606.09;;;10.10;31.19
36932;BME280;22847;42.654;23.370;2024-01-30T08:29:35;96618.63;;;10.60;30.79
36932;BME280;22847;42.654;23.370;2024-01-30T08:32:00;96612.72;;;10.97;30.29
36932;BME280;22847;42.654;23.370;2024-01-30T08:34:26;96638.38;;;9.79;32.31
36932;BME280;22847;42.654;23.370;2024-01-30T08:36:51;96624.84;;;10.71;30.72
36932;BME280;22847;42.654;23.370;2024-01-30T08:39:17;96629.41;;;10.68;29.89
36932;BME280;22847;42.654;23.370;2024-01-30T08:41:42;96643.63;;;10.36;31.12
36932;BME280;22847;42.654;23.370;2024-01-30T08:44:08;96642.91;;;7.40;34.22
36932;BME280;22847;42.654;23.370;2024-01-30T08:46:36;96612.78;;;8.03;33.47
36932;BME280;22847;42.654;23.370;2024-01-30T08:49:01;96494.84;;;7.75;33.09
36932;BME280;22847;42.654;23.370;2024-01-30T08:51:27;96523.78;;;8.00;32.87
36932;BME280;22847;42.654;23.370;2024-01-30T08:53:52;96656.78;;;8.71;32.86
36932;BME280;22847;42.654;23.370;2024-01-30T08:56:19;96632.47;;;8.40;33.12
36932;BME280;22847;42.654;23.370;2024-01-30T08:58:44;96640.94;;;8.11;33.49
36932;BME280;22847;42.654;23.370;2024-01-30T09:01:10;96633.41;;;8.06;34.71
36932;BME280;22847;42.654;23.370;2024-01-30T09:03:35;96592.19;;;7.68;33.74
36932;BME280;22847;42.654;23.370;2024-01-30T09:06:08;96636.88;;;7.90;34.02
36932;BME280;22847;42.654;23.370;2024-01-30T09:08:33;96642.53;;;7.98;34.33
36932;BME280;22847;42.654;23.370;2024-01-30T09:10:59;96649.72;;;7.93;34.49
36932;BME280;22847;42.654;23.370;2024-01-30T09:13:25;96651.66;;;7.72;36.36
36932;BME280;22847;42.654;23.370;2024-01-30T09:15:50;96660.16;;;7.58;35.87
36932;BME280;22847;42.654;23.370;2024-01-30T09:18:15;96634.06;;;7.44;36.28
36932;BME280;22847;42.654;23.370;2024-01-30T09:20:41;96490.28;;;6.64;36.38
36932;BME280;22847;42.654;23.370;2024-01-30T09:23:06;96627.50;;;7.37;36.67
36932;BME280;22847;42.654;23.370;2024-01-30T09:25:32;96631.75;;;7.73;35.75
36932;BME280;22847;42.654;23.370;2024-01-30T09:27:59;96489.19;;;7.35;35.49
36932;BME280;22847;42.654;23.370;2024-01-30T09:30:24;96446.97;;;7.16;35.59
36932;BME280;22847;42.654;23.370;2024-01-30T09:32:50;96551.94;;;7.92;35.74
36932;BME280;22847;42.654;23.370;2024-01-30T09:35:15;96603.22;;;8.20;35.33
36932;BME280;22847;42.654;23.370;2024-01-30T09:37:41;96563.81;;;7.80;35.78
36932;BME280;22847;42.654;23.370;2024-01-30T09:40:07;96634.09;;;9.04;35.28
36932;BME280;22847;42.654;23.370;2024-01-30T09:44:58;96614.31;;;9.46;34.04
36932;BME280;22847;42.654;23.370;2024-01-30T09:47:24;96614.75;;;9.68;33.38
36932;BME280;22847;42.654;23.370;2024-01-30T09:49:50;96612.38;;;9.49;33.44
36932;BME280;22847;42.654;23.370;2024-01-30T09:52:16;96595.38;;;9.14;33.00
36932;BME280;22847;42.654;23.370;2024-01-30T09:54:42;96452.13;;;8.12;34.32
36932;BME280;22847;42.654;23.370;2024-01-30T09:57:08;96593.31;;;8.43;35.16
36932;BME280;22847;42.654;23.370;2024-01-30T09:59:34;96600.09;;;8.30;36.29
36932;BME280;22847;42.654;23.370;2024-01-30T10:02:00;96444.22;;;7.19;37.11
36932;BME280;22847;42.654;23.370;2024-01-30T10:04:26;96582.16;;;7.93;37.92
36932;BME280;22847;42.654;23.370;2024-01-30T10:06:51;96595.63;;;8.01;37.33
36932;BME280;22847;42.654;23.370;2024-01-30T10:09:17;96613.81;;;8.01;37.24
36932;BME280;22847;42.654;23.370;2024-01-30T10:11:42;96591.59;;;8.11;36.94
36932;BME280;22847;42.654;23.370;2024-01-30T10:14:08;96501.19;;;7.53;36.74
36932;BME280;22847;42.654;23.370;2024-01-30T10:16:36;96629.66;;;7.79;37.36
36932;BME280;22847;42.654;23.370;2024-01-30T10:19:02;96589.25;;;7.41;38.08
36932;BME280;22847;42.654;23.370;2024-01-30T10:21:29;96596.75;;;7.12;38.76
36932;BME280;22847;42.654;23.370;2024-01-30T10:23:54;96608.97;;;7.10;38.94
36932;BME280;22847;42.654;23.370;2024-01-30T10:26:20;96570.53;;;6.48;39.32
36932;BME280;22847;42.654;23.370;2024-01-30T10:28:46;96499.16;;;5.88;39.51
36932;BME280;22847;42.654;23.370;2024-01-30T10:31:16;96563.66;;;6.30;42.08
36932;BME280;22847;42.654;23.370;2024-01-30T10:33:42;96479.94;;;6.11;40.15
36932;BME280;22847;42.654;23.370;2024-01-30T10:36:09;96599.94;;;7.35;39.98
36932;BME280;22847;42.654;23.370;2024-01-30T10:38:41;96541.16;;;7.67;38.17
36932;BME280;22847;42.654;23.370;2024-01-30T10:41:08;96609.84;;;7.94;37.99
36932;BME280;22847;42.654;23.370;2024-01-30T10:43:40;96490.75;;;7.22;38.51
36932;BME280;22847;42.654;23.370;2024-01-30T10:46:20;96557.09;;;7.60;37.14
36932;BME280;22847;42.654;23.370;2024-01-30T10:48:57;96597.38;;;7.68;37.00
36932;BME280;22847;42.654;23.370;2024-01-30T10:51:26;96624.50;;;7.62;37.18
36932;BME280;22847;42.654;23.370;2024-01-30T10:53:52;96596.00;;;7.28;37.88
36932;BME280;22847;42.654;23.370;2024-01-30T10:56:20;96476.09;;;4.87;40.99
36932;BME280;22847;42.654;23.370;2024-01-30T10:58:50;96553.56;;;5.29;42.11
36932;BME280;22847;42.654;23.370;2024-01-30T11:01:21;96607.25;;;6.02;41.08
36932;BME280;22847;42.654;23.370;2024-01-30T11:03:53;96608.75;;;6.07;41.25
36932;BME280;22847;42.654;23.370;2024-01-30T11:06:23;96554.56;;;6.75;40.13
36932;BME280;22847;42.654;23.370;2024-01-30T11:09:05;96519.38;;;7.21;38.70
36932;BME280;22847;42.654;23.370;2024-01-30T11:11:57;96570.63;;;7.83;38.42
36932;BME280;22847;42.654;23.370;2024-01-30T11:14:28;96524.03;;;7.95;37.51
36932;BME280;22847;42.654;23.370;2024-01-30T11:16:57;96529.06;;;7.83;37.01
36932;BME280;22847;42.654;23.370;2024-01-30T11:19:24;96562.94;;;8.44;36.48
36932;BME280;22847;42.654;23.370;2024-01-30T11:21:52;96576.97;;;8.41;35.99
36932;BME280;22847;42.654;23.370;2024-01-30T11:24:22;96570.47;;;6.31;39.81
36932;BME280;22847;42.654;23.370;2024-01-30T11:26:49;96567.00;;;6.85;38.92
36932;BME280;22847;42.654;23.370;2024-01-30T11:29:17;96514.16;;;6.70;38.92
36932;BME280;22847;42.654;23.370;2024-01-30T11:31:57;96577.41;;;5.74;41.34
36932;BME280;22847;42.654;23.370;2024-01-30T11:34:23;96573.34;;;5.30;42.82
36932;BME280;22847;42.654;23.370;2024-01-30T11:36:55;96598.00;;;4.11;45.13
36932;BME280;22847;42.654;23.370;2024-01-30T11:39:25;96561.28;;;4.26;44.97
36932;BME280;22847;42.654;23.370;2024-01-30T11:41:52;96575.22;;;5.26;43.60
36932;BME280;22847;42.654;23.370;2024-01-30T11:44:19;96584.31;;;5.94;43.14
36932;BME280;22847;42.654;23.370;2024-01-30T11:46:47;96565.06;;;6.00;42.23
36932;BME280;22847;42.654;23.370;2024-01-30T11:49:13;96567.19;;;6.63;40.86
36932;BME280;22847;42.654;23.370;2024-01-30T11:51:38;96562.03;;;6.81;40.35
36932;BME280;22847;42.654;23.370;2024-01-30T11:54:04;96427.25;;;6.46;38.95
36932;BME280;22847;42.654;23.370;2024-01-30T11:56:29;96550.41;;;7.72;38.55
36932;BME280;22847;42.654;23.370;2024-01-30T11:58:55;96433.13;;;7.48;38.14
36932;BME280;22847;42.654;23.370;2024-01-30T12:01:20;96545.25;;;8.50;37.28
36932;BME280;22847;42.654;23.370;2024-01-30T12:03:49;96502.25;;;8.45;36.29
36932;BME280;22847;42.654;23.370;2024-01-30T12:06:16;96509.28;;;7.80;36.92
36932;BME280;22847;42.654;23.370;2024-01-30T12:08:42;96525.13;;;8.23;36.73
36932;BME280;22847;42.654;23.370;2024-01-30T12:11:07;96508.19;;;7.20;37.66
36932;BME280;22847;42.654;23.370;2024-01-30T12:13:33;96518.91;;;7.12;38.79
36932;BME280;22847;42.654;23.370;2024-01-30T12:16:00;96491.97;;;7.48;38.35
36932;BME280;22847;42.654;23.370;2024-01-30T12:18:26;96481.72;;;7.78;36.87
36932;BME280;22847;42.654;23.370;2024-01-30T12:20:59;96440.06;;;7.79;37.20
36932;BME280;22847;42.654;23.370;2024-01-30T12:23:25;96488.16;;;8.33;36.77
36932;BME280;22847;42.654;23.370;2024-01-30T12:25:52;96483.53;;;8.38;36.40
36932;BME280;22847;42.654;23.370;2024-01-30T12:28:17;96514.97;;;7.55;37.54
36932;BME280;22847;42.654;23.370;2024-01-30T12:30:43;96512.31;;;7.40;38.12
36932;BME280;22847;42.654;23.370;2024-01-30T12:33:09;96461.50;;;7.36;37.70
36932;BME280;22847;42.654;23.370;2024-01-30T12:35:35;96489.50;;;7.62;37.56
36932;BME280;22847;42.654;23.370;2024-01-30T12:38:02;96528.47;;;7.78;37.89
36932;BME280;22847;42.654;23.370;2024-01-30T12:40:27;96355.75;;;7.08;37.99
36932;BME280;22847;42.654;23.370;2024-01-30T12:42:53;96471.56;;;7.89;37.62
36932;BME280;22847;42.654;23.370;2024-01-30T12:45:19;96345.91;;;7.14;36.68
36932;BME280;22847;42.654;23.370;2024-01-30T12:47:47;96503.94;;;7.99;36.35
36932;BME280;22847;42.654;23.370;2024-01-30T12:50:12;96486.25;;;8.05;36.22
36932;BME280;22847;42.654;23.370;2024-01-30T12:52:42;96451.91;;;7.85;37.18
36932;BME280;22847;42.654;23.370;2024-01-30T12:55:07;96480.84;;;8.24;36.90
36932;BME280;22847;42.654;23.370;2024-01-30T12:57:33;96478.84;;;8.45;36.80
36932;BME280;22847;42.654;23.370;2024-01-30T12:59:58;96470.44;;;8.24;36.04
36932;BME280;22847;42.654;23.370;2024-01-30T13:02:24;96472.63;;;8.47;35.68
36932;BME280;22847;42.654;23.370;2024-01-30T13:04:49;96401.44;;;8.04;35.65
36932;BME280;22847;42.654;23.370;2024-01-30T13:07:15;96465.00;;;8.44;35.55
36932;BME280;22847;42.654;23.370;2024-01-30T13:09:40;96446.34;;;8.22;35.62
36932;BME280;22847;42.654;23.370;2024-01-30T13:12:06;96473.25;;;7.90;36.25
36932;BME280;22847;42.654;23.370;2024-01-30T13:14:32;96378.94;;;7.11;36.94
36932;BME280;22847;42.654;23.370;2024-01-30T13:16:58;96464.25;;;6.14;39.50
36932;BME280;22847;42.654;23.370;2024-01-30T13:19:23;96461.91;;;6.78;38.80
36932;BME280;22847;42.654;23.370;2024-01-30T13:21:49;96437.69;;;6.45;38.93
36932;BME280;22847;42.654;23.370;2024-01-30T13:24:14;96436.69;;;5.58;41.34
36932;BME280;22847;42.654;23.370;2024-01-30T13:26:41;96507.19;;;6.01;40.91